DARAJ35 FBFT-FVMV
Flight info
| Callsign | DARAJ35 |
|---|---|
| Flight time | N/A |
| Altitude | FL390 |
| Route | KULBU UL437 RC VMV |
| Aircraft | E35L/M-SDFGIRWXY/SB1 |
Departure
| Time | N/A |
|---|---|
| Airport | FBFT |
Arrival
| Time | 2026-05-01 13:43 |
|---|---|
| Airport | Masvingo International Airport (FVMV) |
| Time | Latitude | Longitude | Altitude | Speed | Heading |
|---|---|---|---|---|---|
| 2026-05-01 12:36 | -21.15831 | 27.47566 | 3311 ft | 0 kts | 8° |
| 2026-05-01 12:49 | -21.15829 | 27.47566 | 3309 ft | 1 kts | 8° |
| 2026-05-01 12:49 | -21.15821 | 27.47539 | 3309 ft | 8 kts | 226° |
| 2026-05-01 12:49 | -21.15829 | 27.47531 | 3309 ft | 2 kts | 221° |
| 2026-05-01 12:50 | -21.15852 | 27.47509 | 3309 ft | 6 kts | 225° |
| 2026-05-01 12:50 | -21.15904 | 27.47466 | 3309 ft | 11 kts | 199° |
| 2026-05-01 12:50 | -21.16013 | 27.47449 | 3308 ft | 15 kts | 184° |
| 2026-05-01 12:50 | -21.16104 | 27.47442 | 3309 ft | 9 kts | 185° |
| 2026-05-01 12:51 | -21.16182 | 27.47435 | 3308 ft | 8 kts | 185° |
| 2026-05-01 12:51 | -21.16241 | 27.47448 | 3307 ft | 21 kts | 140° |
| 2026-05-01 12:51 | -21.16416 | 27.47777 | 3301 ft | 12 kts | 189° |
| 2026-05-01 12:52 | -21.16414 | 27.47730 | 3302 ft | 0 kts | 306° |
| 2026-05-01 12:52 | -21.16389 | 27.47693 | 3302 ft | 5 kts | 306° |
| 2026-05-01 12:52 | -21.16361 | 27.47653 | 3303 ft | 7 kts | 307° |
| 2026-05-01 12:53 | -21.15948 | 27.46917 | 3317 ft | 140 kts | 301° |
| 2026-05-01 12:53 | -21.15304 | 27.45759 | 3720 ft | 189 kts | 302° |
| 2026-05-01 12:53 | -21.14446 | 27.44336 | 4566 ft | 220 kts | 314° |
| 2026-05-01 12:54 | -21.13110 | 27.43664 | 6228 ft | 206 kts | 357° |
| 2026-05-01 12:54 | -21.10867 | 27.45690 | 8529 ft | 227 kts | 82° |
| 2026-05-01 12:54 | -21.10885 | 27.47523 | 9495 ft | 243 kts | 90° |
| 2026-05-01 12:55 | -21.12123 | 27.51636 | 10639 ft | 310 kts | 136° |
| 2026-05-01 12:55 | -21.14157 | 27.52840 | 11741 ft | 317 kts | 166° |
| 2026-05-01 12:55 | -21.16515 | 27.52881 | 12753 ft | 325 kts | 194° |
| 2026-05-01 12:56 | -21.18761 | 27.51675 | 13697 ft | 333 kts | 223° |
| 2026-05-01 12:56 | -21.20238 | 27.49438 | 14716 ft | 336 kts | 251° |
| 2026-05-01 12:56 | -21.20573 | 27.46910 | 15737 ft | 335 kts | 277° |
| 2026-05-01 12:56 | -21.19796 | 27.44408 | 16779 ft | 335 kts | 302° |
| 2026-05-01 12:57 | -21.17937 | 27.42457 | 17794 ft | 341 kts | 328° |
| 2026-05-01 12:57 | -21.12752 | 27.42056 | 19747 ft | 364 kts | 18° |
| 2026-05-01 12:57 | -21.10373 | 27.43659 | 20717 ft | 375 kts | 34° |
| 2026-05-01 12:58 | -21.08089 | 27.45579 | 21664 ft | 379 kts | 34° |
| 2026-05-01 12:58 | -21.05839 | 27.47465 | 22592 ft | 383 kts | 33° |
| 2026-05-01 12:58 | -21.03539 | 27.49288 | 23453 ft | 385 kts | 29° |
| 2026-05-01 12:59 | -20.99893 | 27.54593 | 24995 ft | 421 kts | 71° |
| 2026-05-01 12:59 | -20.98934 | 27.57918 | 25850 ft | 421 kts | 64° |
| 2026-05-01 12:59 | -20.96036 | 27.63459 | 27663 ft | 416 kts | 59° |
| 2026-05-01 13:00 | -20.93170 | 27.68862 | 29341 ft | 409 kts | 47° |
| 2026-05-01 13:00 | -20.91127 | 27.71292 | 30245 ft | 401 kts | 37° |
| 2026-05-01 13:01 | -20.86794 | 27.75840 | 32099 ft | 397 kts | 39° |
| 2026-05-01 13:01 | -20.84728 | 27.78037 | 32960 ft | 396 kts | 39° |
| 2026-05-01 13:01 | -20.80525 | 27.82506 | 34869 ft | 392 kts | 39° |
| 2026-05-01 13:02 | -20.78524 | 27.84629 | 35770 ft | 390 kts | 39° |
| 2026-05-01 13:07 | -20.32060 | 28.33765 | 39240 ft | 460 kts | 40° |
| 2026-05-01 13:07 | -20.29625 | 28.36328 | 39240 ft | 462 kts | 40° |
| 2026-05-01 13:08 | -20.24924 | 28.41273 | 39245 ft | 465 kts | 41° |
| 2026-05-01 13:08 | -20.20028 | 28.46418 | 39246 ft | 469 kts | 41° |
| 2026-05-01 13:09 | -20.15285 | 28.51397 | 39244 ft | 471 kts | 41° |
| 2026-05-01 13:09 | -20.10485 | 28.56432 | 39242 ft | 474 kts | 41° |
| 2026-05-01 13:10 | -20.05677 | 28.61509 | 39241 ft | 475 kts | 45° |
| 2026-05-01 13:10 | -20.03793 | 28.64587 | 39264 ft | 474 kts | 64° |
| 2026-05-01 13:10 | -20.03329 | 28.65890 | 39262 ft | 474 kts | 70° |
| 2026-05-01 13:25 | -20.02879 | 28.68058 | 39245 ft | 473 kts | 82° |
| 2026-05-01 13:25 | -20.02852 | 28.75244 | 39238 ft | 463 kts | 88° |
| 2026-05-01 13:25 | -20.02842 | 28.78906 | 38913 ft | 460 kts | 88° |
| 2026-05-01 13:26 | -20.02826 | 28.82554 | 38322 ft | 462 kts | 88° |
| 2026-05-01 13:26 | -20.02809 | 28.86111 | 37793 ft | 464 kts | 88° |
| 2026-05-01 13:26 | -20.02790 | 28.89827 | 37322 ft | 464 kts | 88° |
| 2026-05-01 13:26 | -20.02770 | 28.93511 | 36647 ft | 468 kts | 88° |
| 2026-05-01 13:27 | -20.02750 | 28.97100 | 36056 ft | 470 kts | 88° |
| 2026-05-01 13:27 | -20.02729 | 29.00683 | 35605 ft | 469 kts | 88° |
| 2026-05-01 13:27 | -20.02683 | 29.08212 | 34259 ft | 474 kts | 88° |
| 2026-05-01 13:28 | -20.02635 | 29.15615 | 33016 ft | 477 kts | 87° |
| 2026-05-01 13:28 | -20.02608 | 29.19507 | 32376 ft | 478 kts | 88° |
| 2026-05-01 13:29 | -20.02555 | 29.27028 | 31206 ft | 481 kts | 88° |
| 2026-05-01 13:29 | -20.02495 | 29.34852 | 29946 ft | 483 kts | 88° |
| 2026-05-01 13:30 | -20.02365 | 29.50724 | 27166 ft | 487 kts | 87° |
| 2026-05-01 13:31 | -20.02297 | 29.58323 | 25635 ft | 489 kts | 87° |
| 2026-05-01 13:31 | -20.02192 | 29.69478 | 23775 ft | 479 kts | 86° |
| 2026-05-01 13:32 | -20.02119 | 29.76823 | 22589 ft | 472 kts | 86° |
| 2026-05-01 13:33 | -20.02005 | 29.87781 | 21484 ft | 446 kts | 86° |
| 2026-05-01 13:33 | -20.01930 | 29.94545 | 20700 ft | 432 kts | 86° |
| 2026-05-01 13:34 | -20.01857 | 30.01032 | 19939 ft | 421 kts | 86° |
| 2026-05-01 13:34 | -20.01782 | 30.07423 | 19180 ft | 409 kts | 86° |
| 2026-05-01 13:35 | -20.01707 | 30.13703 | 18128 ft | 379 kts | 86° |
| 2026-05-01 13:35 | -20.01670 | 30.16750 | 17517 ft | 369 kts | 86° |
| 2026-05-01 13:35 | -20.01600 | 30.22238 | 16396 ft | 353 kts | 86° |
| 2026-05-01 13:36 | -20.01564 | 30.25072 | 15803 ft | 347 kts | 86° |
| 2026-05-01 13:36 | -20.01528 | 30.27834 | 15215 ft | 341 kts | 86° |
| 2026-05-01 13:36 | -20.01456 | 30.33251 | 14037 ft | 331 kts | 87° |
| 2026-05-01 13:37 | -20.01421 | 30.35882 | 13454 ft | 327 kts | 88° |
| 2026-05-01 13:37 | -20.01388 | 30.38351 | 12907 ft | 323 kts | 88° |
| 2026-05-01 13:37 | -20.01355 | 30.40747 | 12370 ft | 320 kts | 88° |
| 2026-05-01 13:37 | -20.01321 | 30.43176 | 11819 ft | 317 kts | 88° |
| 2026-05-01 13:38 | -20.01253 | 30.48079 | 10631 ft | 293 kts | 88° |
| 2026-05-01 13:38 | -20.01220 | 30.50327 | 10109 ft | 294 kts | 88° |
| 2026-05-01 13:38 | -20.01187 | 30.52690 | 9711 ft | 288 kts | 88° |
| 2026-05-01 13:39 | -20.01156 | 30.54819 | 9355 ft | 284 kts | 88° |
| 2026-05-01 13:39 | -20.01124 | 30.57009 | 8983 ft | 280 kts | 88° |
| 2026-05-01 13:39 | -20.01091 | 30.59225 | 8601 ft | 277 kts | 88° |
| 2026-05-01 13:39 | -20.01059 | 30.61431 | 8222 ft | 274 kts | 88° |
| 2026-05-01 13:40 | -20.01025 | 30.63650 | 7833 ft | 272 kts | 88° |
| 2026-05-01 13:40 | -20.00994 | 30.65748 | 7502 ft | 268 kts | 88° |
| 2026-05-01 13:40 | -20.00961 | 30.67893 | 7192 ft | 264 kts | 88° |
| 2026-05-01 13:40 | -20.00929 | 30.69982 | 6871 ft | 252 kts | 88° |
| 2026-05-01 13:41 | -20.00898 | 30.71999 | 6568 ft | 250 kts | 88° |
| 2026-05-01 13:41 | -20.00867 | 30.73999 | 6262 ft | 249 kts | 88° |
| 2026-05-01 13:41 | -20.00835 | 30.76019 | 5951 ft | 248 kts | 88° |
| 2026-05-01 13:41 | -20.00804 | 30.77964 | 5650 ft | 247 kts | 88° |
| 2026-05-01 13:42 | -20.00775 | 30.79832 | 5360 ft | 246 kts | 88° |
| 2026-05-01 13:42 | -20.00744 | 30.81783 | 5057 ft | 245 kts | 89° |
| 2026-05-01 13:42 | -20.01181 | 30.83678 | 4814 ft | 235 kts | 121° |
| 2026-05-01 13:42 | -20.02454 | 30.84827 | 4607 ft | 216 kts | 156° |
| 2026-05-01 13:43 | -20.03845 | 30.85335 | 4334 ft | 184 kts | 159° |
| 2026-05-01 13:43 | -20.05070 | 30.85764 | 3707 ft | 168 kts | 161° |
| 2026-05-01 13:43 | -20.06064 | 30.86106 | 3617 ft | 109 kts | 164° |
| 2026-05-01 13:43 | -20.06425 | 30.86232 | 3614 ft | 13 kts | 161° |
| 2026-05-01 13:44 | -20.06437 | 30.86226 | 3614 ft | 3 kts | 302° |
| 2026-05-01 13:44 | -20.06364 | 30.86206 | 3614 ft | 22 kts | 348° |
| 2026-05-01 13:44 | -20.06197 | 30.86148 | 3616 ft | 24 kts | 332° |
| 2026-05-01 13:44 | -20.06168 | 30.86080 | 3614 ft | 0 kts | 265° |